Time;durP1;ratioP1;P1;durP2;ratioP2;P2;SDS_P1;SDS_P2;PMS_P1;PMS_P2;Temp;Humidity;BMP_temperature;BMP_pressure;BME280_temperature;BME280_humidity;BME280_pressure;Samples;Min_cycle;Max_cycle;Signal;HPM_P1;HPM_P2
2022/07/28 00:00:32;;;;;;;0.90;0.90;;;17.70;99.90;;;;;;5017946;28;20222;-83
2022/07/28 00:02:58;;;;;;;1.73;1.05;;;17.60;99.90;;;;;;5018011;28;20205;-83
2022/07/28 00:05:24;;;;;;;2.85;0.95;;;17.50;99.90;;;;;;5017200;28;20702;-82
2022/07/28 00:07:51;;;;;;;3.28;0.70;;;17.40;99.90;;;;;;5016946;28;20199;-82
2022/07/28 00:10:16;;;;;;;2.65;0.88;;;17.20;99.90;;;;;;5034122;28;20242;-82
2022/07/28 00:12:43;;;;;;;6.70;0.82;;;17.10;99.90;;;;;;5035407;28;20168;-83
2022/07/28 00:15:09;;;;;;;5.32;1.20;;;17.20;99.90;;;;;;5035003;28;20643;-82
2022/07/28 00:17:36;;;;;;;3.13;0.88;;;17.20;99.90;;;;;;5034153;28;20191;-82
2022/07/28 00:20:04;;;;;;;4.07;0.85;;;17.20;99.90;;;;;;5034819;28;20706;-83
2022/07/28 00:22:30;;;;;;;6.30;1.10;;;17.20;99.90;;;;;;5016100;28;20180;-82
2022/07/28 00:24:55;;;;;;;1.25;1.00;;;17.30;99.90;;;;;;5016645;28;20179;-83
2022/07/28 00:27:21;;;;;;;2.78;1.15;;;17.20;99.90;;;;;;5016915;28;20199;-83
2022/07/28 00:29:46;;;;;;;8.63;1.10;;;17.20;99.90;;;;;;5016174;28;20713;-82
2022/07/28 00:32:12;;;;;;;1.33;0.80;;;17.20;99.90;;;;;;5015892;28;20211;-81
2022/07/28 00:34:38;;;;;;;7.90;1.00;;;17.10;99.90;;;;;;5015510;28;20554;-82
2022/07/28 00:37:03;;;;;;;1.02;0.80;;;17.10;99.90;;;;;;5020898;28;20259;-82
2022/07/28 00:39:29;;;;;;;1.35;1.00;;;17.20;99.90;;;;;;5029556;28;20167;-83
2022/07/28 00:41:55;;;;;;;3.50;1.15;;;17.10;99.90;;;;;;5048630;28;20671;-82
2022/07/28 00:44:20;;;;;;;1.30;0.80;;;16.90;99.90;;;;;;5032856;28;20172;-84
2022/07/28 00:46:46;;;;;;;3.85;1.20;;;16.80;99.90;;;;;;5048202;28;20206;-82
2022/07/28 00:49:13;;;;;;;8.82;1.30;;;16.80;99.90;;;;;;5062435;28;20179;-82
2022/07/28 00:51:39;;;;;;;3.47;1.00;;;16.70;99.90;;;;;;5042035;28;20219;-83
2022/07/28 00:54:05;;;;;;;5.20;1.05;;;16.80;99.90;;;;;;5028523;28;20156;-83
2022/07/28 00:56:32;;;;;;;9.25;1.00;;;16.70;99.90;;;;;;5033060;28;20202;-84
2022/07/28 00:58:58;;;;;;;3.80;1.00;;;16.90;99.90;;;;;;5030619;28;20168;-84
2022/07/28 01:01:24;;;;;;;6.45;1.00;;;16.70;99.90;;;;;;5022910;28;20237;-84
2022/07/28 01:03:53;;;;;;;0.98;0.77;;;16.70;99.90;;;;;;5026778;28;20171;-84
2022/07/28 01:06:28;;;;;;;2.25;0.93;;;16.70;99.90;;;;;;5024504;28;20180;-83
2022/07/28 01:09:24;;;;;;;4.25;1.17;;;16.50;99.90;;;;;;5021544;28;20179;-83
2022/07/28 01:12:27;;;;;;;2.08;1.10;;;16.60;99.90;;;;;;5019247;28;20234;-83
2022/07/28 01:15:08;;;;;;;2.45;0.90;;;16.60;99.90;;;;;;5019086;28;20198;-84
2022/07/28 01:18:04;;;;;;;0.85;0.70;;;16.50;99.90;;;;;;5019345;28;20602;-83
2022/07/28 01:20:40;;;;;;;0.73;0.63;;;16.60;99.90;;;;;;5037625;28;20502;-84
2022/07/28 01:23:17;;;;;;;1.00;0.80;;;16.60;99.90;;;;;;5019667;28;20255;-84
2022/07/28 01:26:14;;;;;;;1.75;0.85;;;16.60;99.90;;;;;;5037041;28;20229;-84
2022/07/28 01:29:24;;;;;;;5.47;1.08;;;16.40;99.90;;;;;;5037214;28;20254;-84
2022/07/28 01:32:07;;;;;;;1.17;0.90;;;16.40;99.90;;;;;;5019562;28;20242;-84
2022/07/28 01:34:39;;;;;;;4.53;1.02;;;16.30;99.90;;;;;;5037605;28;20632;-85
2022/07/28 01:37:16;;;;;;;2.72;1.17;;;16.30;99.90;;;;;;5036905;28;20188;-85
2022/07/28 01:39:43;;;;;;;2.50;0.85;;;16.20;99.90;;;;;;5019771;28;20187;-85
2022/07/28 01:42:11;;;;;;;3.72;1.10;;;16.20;99.90;;;;;;5019462;28;20647;-85
2022/07/28 01:44:42;;;;;;;3.78;1.33;;;16.30;99.90;;;;;;5018916;28;20164;-85
2022/07/28 01:47:09;;;;;;;5.25;1.13;;;16.40;99.90;;;;;;5036877;28;20188;-84
2022/07/28 01:49:35;;;;;;;7.10;1.27;;;16.20;99.90;;;;;;5018912;28;20699;-83
2022/07/28 01:52:04;;;;;;;1.42;1.08;;;16.20;99.90;;;;;;5019042;28;20183;-85
2022/07/28 01:54:31;;;;;;;1.80;1.13;;;16.20;99.90;;;;;;5036452;28;20178;-84
2022/07/28 01:56:59;;;;;;;7.45;0.90;;;16.20;99.90;;;;;;5018572;28;20226;-84
2022/07/28 01:59:28;;;;;;;2.67;0.88;;;16.10;99.90;;;;;;5017764;28;20306;-84
2022/07/28 02:01:54;;;;;;;3.88;1.02;;;16.00;99.90;;;;;;5019191;28;20172;-84
2022/07/28 02:04:22;;;;;;;4.50;0.95;;;16.00;99.90;;;;;;5019030;28;20168;-85
2022/07/28 02:06:51;;;;;;;5.18;0.90;;;15.90;99.90;;;;;;5018723;28;20184;-83
2022/07/28 02:09:19;;;;;;;4.40;1.23;;;16.00;99.90;;;;;;5017561;28;20259;-84
2022/07/28 02:11:46;;;;;;;3.75;0.90;;;16.10;99.90;;;;;;5017148;28;20204;-84
2022/07/28 02:14:16;;;;;;;1.80;1.10;;;16.00;99.90;;;;;;5017408;28;20624;-84
2022/07/28 02:16:48;;;;;;;9.73;1.25;;;15.90;99.90;;;;;;5034692;28;20226;-84
2022/07/28 02:19:17;;;;;;;11.43;1.23;;;15.90;99.90;;;;;;5016911;28;20183;-84
2022/07/28 02:21:46;;;;;;;4.78;0.82;;;15.90;99.90;;;;;;5034384;28;20196;-84
2022/07/28 02:24:12;;;;;;;4.40;1.10;;;15.80;99.90;;;;;;5034587;28;20156;-84
2022/07/28 02:27:08;;;;;;;3.38;0.90;;;15.90;99.90;;;;;;5016951;28;20189;-84
2022/07/28 02:29:50;;;;;;;2.78;0.75;;;15.80;99.90;;;;;;5016563;28;20229;-83
2022/07/28 02:32:29;;;;;;;4.80;1.00;;;15.90;99.90;;;;;;5034512;28;20168;-85
2022/07/28 02:35:08;;;;;;;3.22;1.00;;;16.00;99.90;;;;;;5017182;28;20520;-84
2022/07/28 02:37:38;;;;;;;4.88;1.20;;;15.80;99.90;;;;;;5017018;28;20249;-83
2022/07/28 02:40:08;;;;;;;4.63;1.25;;;15.80;99.90;;;;;;5037136;28;20167;-83
2022/07/28 02:42:35;;;;;;;5.45;1.30;;;15.70;99.90;;;;;;5037705;28;20223;-83
2022/07/28 02:45:05;;;;;;;3.30;0.95;;;15.70;99.90;;;;;;5028470;28;20174;-84
2022/07/28 02:47:37;;;;;;;9.27;1.23;;;15.80;99.90;;;;;;5041919;28;20187;-83
2022/07/28 02:50:07;;;;;;;2.20;1.00;;;15.80;99.90;;;;;;5044029;28;20683;-84
2022/07/28 02:52:33;;;;;;;3.42;1.10;;;15.90;99.90;;;;;;5011284;28;20226;-83
2022/07/28 02:55:00;;;;;;;2.58;1.23;;;15.70;99.90;;;;;;5025768;28;20167;-83
2022/07/28 02:57:27;;;;;;;1.25;0.82;;;15.70;99.90;;;;;;5044557;28;20168;-84
2022/07/28 02:59:57;;;;;;;3.70;0.90;;;15.70;99.90;;;;;;5042852;28;20517;-84
2022/07/28 03:02:23;;;;;;;3.22;1.17;;;15.90;99.90;;;;;;5025601;28;20168;-83
2022/07/28 03:04:57;;;;;;;5.53;0.90;;;15.90;99.90;;;;;;5025853;28;20187;-82
2022/07/28 03:07:30;;;;;;;3.00;1.42;;;15.80;99.90;;;;;;5043135;28;20199;-83
2022/07/28 03:09:57;;;;;;;5.60;1.20;;;15.80;99.90;;;;;;5022847;28;20707;-83
2022/07/28 03:12:25;;;;;;;11.20;1.45;;;15.70;99.90;;;;;;5025295;28;20172;-82
2022/07/28 03:14:51;;;;;;;2.20;1.17;;;15.70;99.90;;;;;;5006609;28;20187;-84
2022/07/28 03:17:18;;;;;;;2.22;1.10;;;15.80;99.90;;;;;;5047903;28;20188;-86
2022/07/28 03:19:46;;;;;;;4.45;1.10;;;15.80;99.90;;;;;;5036086;28;20178;-82
2022/07/28 03:22:16;;;;;;;1.33;0.93;;;15.80;99.90;;;;;;5057792;28;20215;-81
2022/07/28 03:24:47;;;;;;;8.18;1.08;;;15.90;99.90;;;;;;5013290;28;20179;-82
2022/07/28 03:27:32;;;;;;;1.90;1.40;;;15.80;99.90;;;;;;4995129;28;20199;-82
2022/07/28 03:30:19;;;;;;;2.60;1.50;;;15.70;99.90;;;;;;5044197;28;20238;-82
2022/07/28 03:32:54;;;;;;;3.92;1.30;;;15.60;99.90;;;;;;5011749;28;20175;-82
2022/07/28 03:35:31;;;;;;;3.30;1.20;;;15.50;99.90;;;;;;5044497;28;20164;-82
2022/07/28 03:38:32;;;;;;;4.43;0.98;;;15.70;99.90;;;;;;5044096;28;20159;-82
2022/07/28 03:41:00;;;;;;;3.90;1.40;;;15.60;99.90;;;;;;5034570;28;20301;-82
2022/07/28 03:43:27;;;;;;;4.60;0.85;;;15.60;99.90;;;;;;5018115;28;20167;-83
2022/07/28 03:45:53;;;;;;;6.40;1.85;;;15.60;99.90;;;;;;5032967;28;20253;-83
2022/07/28 03:48:23;;;;;;;3.60;1.15;;;15.60;99.90;;;;;;5033141;28;20207;-82
2022/07/28 03:50:49;;;;;;;2.00;0.98;;;15.60;99.90;;;;;;5015879;28;20212;-83
2022/07/28 03:53:25;;;;;;;4.43;1.20;;;15.60;99.90;;;;;;5015419;28;20183;-83
2022/07/28 03:55:50;;;;;;;3.22;1.08;;;15.50;99.90;;;;;;5032809;28;20211;-82
2022/07/28 03:58:21;;;;;;;1.13;1.05;;;15.50;99.90;;;;;;5015266;28;20616;-82
2022/07/28 04:00:48;;;;;;;8.23;1.30;;;15.50;99.90;;;;;;5015466;28;20187;-83
2022/07/28 04:03:14;;;;;;;6.70;1.33;;;15.50;99.90;;;;;;5015257;28;20574;-83
2022/07/28 04:05:40;;;;;;;1.95;1.20;;;15.50;99.90;;;;;;5015638;28;20259;-82
2022/07/28 04:08:06;;;;;;;4.35;1.27;;;15.30;99.90;;;;;;5015402;28;20251;-82
2022/07/28 04:10:31;;;;;;;2.28;1.35;;;15.40;99.90;;;;;;5015213;28;20207;-83
2022/07/28 04:12:58;;;;;;;3.60;1.17;;;15.50;99.90;;;;;;5015195;28;20168;-84
2022/07/28 04:15:25;;;;;;;7.07;1.23;;;15.70;99.90;;;;;;5032818;28;20178;-83
2022/07/28 04:17:52;;;;;;;3.05;1.00;;;15.60;99.90;;;;;;5033194;28;20222;-83
2022/07/28 04:20:20;;;;;;;3.85;1.20;;;15.60;99.90;;;;;;5015363;28;20204;-83
2022/07/28 04:22:47;;;;;;;1.98;0.90;;;15.50;99.90;;;;;;5014544;28;20254;-83
2022/07/28 04:25:14;;;;;;;3.88;1.15;;;15.50;99.90;;;;;;5015124;28;20258;-83
2022/07/28 04:27:41;;;;;;;3.03;1.20;;;15.60;99.90;;;;;;5032471;28;20681;-82
2022/07/28 04:30:18;;;;;;;2.28;1.33;;;15.70;99.90;;;;;;5015066;28;20221;-83
2022/07/28 04:32:45;;;;;;;6.15;1.00;;;15.70;99.90;;;;;;5032705;28;20259;-83
2022/07/28 04:35:12;;;;;;;2.92;1.40;;;15.70;99.90;;;;;;5014788;28;20168;-82
2022/07/28 04:37:38;;;;;;;4.43;1.30;;;15.80;99.90;;;;;;5032636;28;20188;-84
2022/07/28 04:40:06;;;;;;;3.63;1.42;;;15.90;99.90;;;;;;5014873;28;20259;-84
2022/07/28 04:42:32;;;;;;;1.48;1.20;;;15.70;99.90;;;;;;5032681;28;20536;-83
2022/07/28 04:44:58;;;;;;;1.42;1.13;;;15.50;99.90;;;;;;5032612;28;20164;-83
2022/07/28 04:47:27;;;;;;;5.53;2.28;;;15.40;99.90;;;;;;5033178;28;20195;-84
2022/07/28 04:49:55;;;;;;;6.50;1.88;;;15.40;99.90;;;;;;5032812;28;20235;-82
2022/07/28 04:52:21;;;;;;;5.80;1.55;;;15.50;99.90;;;;;;5032959;28;20544;-83
2022/07/28 04:54:47;;;;;;;7.57;1.40;;;15.50;99.90;;;;;;5017583;28;20168;-83
2022/07/28 04:57:14;;;;;;;2.13;1.17;;;15.40;99.90;;;;;;5019280;28;20199;-83
2022/07/28 04:59:40;;;;;;;3.28;1.08;;;15.40;99.90;;;;;;5022406;28;20183;-83
2022/07/28 05:02:06;;;;;;;6.18;1.30;;;15.30;99.90;;;;;;5035260;28;20186;-81
2022/07/28 05:04:35;;;;;;;3.83;1.42;;;15.20;99.90;;;;;;5029261;28;20223;-82
2022/07/28 05:07:05;;;;;;;1.92;1.33;;;15.20;99.90;;;;;;5046431;28;20176;-82
2022/07/28 05:09:31;;;;;;;2.95;1.30;;;15.30;99.90;;;;;;5027467;28;20172;-82
2022/07/28 05:11:57;;;;;;;7.50;1.35;;;15.30;99.90;;;;;;5023325;28;20191;-82
2022/07/28 05:15:00;;;;;;;3.55;1.15;;;15.20;99.90;;;;;;5030751;28;20172;-82
2022/07/28 05:17:26;;;;;;;1.17;1.08;;;15.40;99.90;;;;;;5022411;28;20652;-81
2022/07/28 05:19:51;;;;;;;7.93;1.40;;;15.40;99.90;;;;;;5017519;28;20176;-83
2022/07/28 05:22:17;;;;;;;4.22;1.50;;;15.30;99.90;;;;;;5019582;28;20160;-82
2022/07/28 05:24:43;;;;;;;12.77;1.25;;;15.30;99.90;;;;;;5019403;28;20181;-80
2022/07/28 05:27:10;;;;;;;3.17;1.88;;;15.20;99.90;;;;;;5017545;28;20192;-82
2022/07/28 05:29:41;;;;;;;3.35;1.17;;;15.10;99.90;;;;;;5017919;28;20198;-83
2022/07/28 05:32:07;;;;;;;8.90;1.50;;;15.00;99.90;;;;;;5025538;28;20262;-82
2022/07/28 05:34:34;;;;;;;3.33;1.48;;;15.00;99.90;;;;;;5022543;28;20636;-83
2022/07/28 05:37:01;;;;;;;5.47;1.10;;;15.30;99.90;;;;;;5021415;28;20643;-83
2022/07/28 05:39:28;;;;;;;3.85;1.88;;;15.50;99.90;;;;;;5037572;28;20254;-82
2022/07/28 05:41:53;;;;;;;11.57;1.27;;;15.60;99.90;;;;;;5019627;28;20172;-82
2022/07/28 05:44:19;;;;;;;3.20;1.60;;;15.70;99.90;;;;;;5018383;28;20638;-82
2022/07/28 05:46:44;;;;;;;6.68;1.52;;;15.80;99.90;;;;;;5038213;28;20536;-82
2022/07/28 05:49:10;;;;;;;3.35;1.20;;;15.80;99.90;;;;;;5026384;28;20199;-85
2022/07/28 05:51:35;;;;;;;4.25;1.48;;;15.90;99.90;;;;;;5031718;28;20200;-84
2022/07/28 05:54:01;;;;;;;4.03;1.75;;;15.90;99.90;;;;;;5040233;28;20232;-82
2022/07/28 05:56:27;;;;;;;5.10;1.38;;;15.90;99.90;;;;;;5048238;28;20274;-82
2022/07/28 05:58:52;;;;;;;3.15;1.83;;;16.00;99.90;;;;;;5018483;28;20198;-82
2022/07/28 06:01:18;;;;;;;6.00;1.70;;;16.00;99.90;;;;;;5017907;28;20262;-82
2022/07/28 06:03:44;;;;;;;3.97;1.63;;;16.10;99.90;;;;;;5035728;28;20184;-82
2022/07/28 06:06:10;;;;;;;6.40;1.50;;;16.10;99.90;;;;;;5017556;28;20663;-83
2022/07/28 06:08:35;;;;;;;2.72;1.52;;;16.10;99.90;;;;;;5017685;28;20624;-83
2022/07/28 06:11:07;;;;;;;9.20;1.83;;;16.20;99.90;;;;;;5017486;28;20219;-82
2022/07/28 06:13:35;;;;;;;6.32;1.70;;;16.20;99.90;;;;;;5035415;28;20156;-84
2022/07/28 06:16:03;;;;;;;3.70;1.80;;;16.30;99.90;;;;;;5035660;28;20187;-82
2022/07/28 06:18:28;;;;;;;6.53;1.70;;;16.40;99.90;;;;;;5017493;28;20254;-83
2022/07/28 06:20:54;;;;;;;9.73;1.92;;;16.20;99.90;;;;;;5017583;28;20267;-83
2022/07/28 06:23:22;;;;;;;3.03;1.52;;;16.50;99.90;;;;;;5035461;28;20179;-83
2022/07/28 06:25:48;;;;;;;3.28;1.80;;;16.60;99.90;;;;;;5017866;28;20191;-83
2022/07/28 06:28:14;;;;;;;11.07;2.00;;;16.90;99.90;;;;;;5017224;28;20231;-80
2022/07/28 06:30:40;;;;;;;9.30;1.23;;;17.10;99.90;;;;;;5034686;28;20267;-83
2022/07/28 06:33:06;;;;;;;4.35;1.40;;;17.40;99.90;;;;;;5034359;28;20612;-82
2022/07/28 06:35:32;;;;;;;3.05;1.30;;;17.60;99.90;;;;;;5034480;28;20164;-82
2022/07/28 06:37:58;;;;;;;3.92;1.27;;;17.70;99.90;;;;;;5017026;28;20187;-82
2022/07/28 06:40:24;;;;;;;5.57;1.60;;;17.70;99.90;;;;;;5017070;28;20251;-83
2022/07/28 06:42:50;;;;;;;7.18;1.60;;;17.90;99.90;;;;;;5034526;28;20243;-83
2022/07/28 06:45:18;;;;;;;3.67;1.20;;;18.20;99.90;;;;;;5017327;28;20226;-87
2022/07/28 06:47:44;;;;;;;1.42;1.27;;;18.30;99.90;;;;;;5045506;28;20223;-84
2022/07/28 06:50:11;;;;;;;12.85;1.83;;;18.30;99.90;;;;;;5047178;28;20199;-83
2022/07/28 06:52:40;;;;;;;7.40;1.33;;;18.10;99.90;;;;;;5053067;28;20176;-83
2022/07/28 06:55:07;;;;;;;5.53;1.33;;;18.00;99.90;;;;;;5037136;28;20198;-82
2022/07/28 06:57:38;;;;;;;2.25;1.27;;;18.00;99.90;;;;;;5036024;28;20207;-82
2022/07/28 07:00:06;;;;;;;5.72;2.05;;;18.00;99.90;;;;;;5019509;28;20202;-83
2022/07/28 07:02:38;;;;;;;7.68;1.63;;;18.10;99.90;;;;;;5036655;28;20606;-84
2022/07/28 07:05:04;;;;;;;5.75;1.30;;;17.80;99.90;;;;;;5036427;28;20285;-86
2022/07/28 07:07:30;;;;;;;3.58;1.77;;;17.80;99.90;;;;;;5054280;28;20707;-85
2022/07/28 07:09:55;;;;;;;3.65;1.42;;;18.00;99.90;;;;;;5044091;28;20215;-91
2022/07/28 07:12:22;;;;;;;6.47;1.42;;;18.10;99.90;;;;;;5060163;28;20167;-86
2022/07/28 07:14:48;;;;;;;15.10;1.13;;;18.10;99.90;;;;;;5058501;28;20159;-82
2022/07/28 07:17:14;;;;;;;2.72;1.75;;;18.50;99.90;;;;;;5037113;28;20743;-81
2022/07/28 07:19:45;;;;;;;8.30;1.60;;;18.90;99.90;;;;;;5032386;28;20180;-84
2022/07/28 07:22:13;;;;;;;8.15;1.70;;;19.10;99.90;;;;;;5047305;28;20167;-86
2022/07/28 07:24:39;;;;;;;2.00;1.33;;;20.00;99.90;;;;;;5044117;28;20630;-83
2022/07/28 07:27:05;;;;;;;4.03;1.38;;;20.40;99.90;;;;;;5053377;28;20237;-83
2022/07/28 07:29:30;;;;;;;5.88;1.80;;;20.90;99.90;;;;;;5035742;28;20175;-84
2022/07/28 07:31:57;;;;;;;5.35;1.30;;;21.10;99.90;;;;;;5049689;28;20825;-78
2022/07/28 07:34:23;;;;;;;7.28;1.33;;;21.40;99.90;;;;;;5051711;28;20159;-86
2022/07/28 07:36:48;;;;;;;2.47;1.20;;;21.20;99.90;;;;;;5052524;28;20202;-84
2022/07/28 07:39:14;;;;;;;5.30;1.50;;;20.90;99.90;;;;;;5054326;28;20595;-86
2022/07/28 07:41:40;;;;;;;5.03;1.58;;;21.00;99.90;;;;;;5053041;28;20265;-89
2022/07/28 07:44:08;;;;;;;5.05;1.50;;;21.50;99.90;;;;;;5037431;28;20208;-92
2022/07/28 07:46:35;;;;;;;3.03;1.20;;;21.60;99.90;;;;;;5034479;28;20662;-85
2022/07/28 07:49:00;;;;;;;6.53;1.23;;;21.50;99.90;;;;;;5047705;28;20254;-86
2022/07/28 07:51:26;;;;;;;2.88;1.20;;;20.90;99.90;;;;;;5049582;28;20334;-82
2022/07/28 07:53:51;;;;;;;7.75;2.13;;;20.60;99.90;;;;;;5053397;28;20171;-83
2022/07/28 07:56:17;;;;;;;9.10;1.27;;;20.60;99.90;;;;;;5052623;28;20187;-85
2022/07/28 07:58:43;;;;;;;3.05;1.20;;;20.40;99.90;;;;;;5035062;28;20195;-81
2022/07/28 08:01:11;;;;;;;2.25;1.08;;;20.30;99.90;;;;;;5044312;28;20274;-85
2022/07/28 08:03:36;;;;;;;7.70;1.42;;;20.00;99.90;;;;;;5033234;28;20172;-83
2022/07/28 08:06:02;;;;;;;10.13;1.20;;;20.00;99.90;;;;;;5033252;28;20192;-83
2022/07/28 08:08:28;;;;;;;2.90;1.30;;;19.90;99.90;;;;;;5015986;28;20164;-87
2022/07/28 08:10:53;;;;;;;1.63;1.08;;;19.70;99.90;;;;;;5021584;28;20246;-83
2022/07/28 08:13:19;;;;;;;4.65;1.10;;;19.60;99.90;;;;;;5035278;28;20174;-86
2022/07/28 08:15:45;;;;;;;10.90;1.30;;;19.60;99.90;;;;;;5053973;28;20226;-87
2022/07/28 08:18:11;;;;;;;23.25;1.35;;;19.80;99.90;;;;;;5036008;28;20170;-91
2022/07/28 08:20:37;;;;;;;9.57;1.80;;;19.50;99.90;;;;;;5053220;28;20175;-84
2022/07/28 08:23:03;;;;;;;7.30;1.77;;;19.80;99.90;;;;;;5050249;28;20169;-79
2022/07/28 08:25:29;;;;;;;2.83;1.30;;;20.00;99.90;;;;;;5046329;28;20198;-79
2022/07/28 08:27:54;;;;;;;2.63;1.35;;;20.20;99.90;;;;;;5076330;28;20171;-79
2022/07/28 08:30:20;;;;;;;11.85;0.90;;;20.40;99.90;;;;;;5052806;28;20234;-80
2022/07/28 08:32:46;;;;;;;5.22;1.30;;;20.60;99.90;;;;;;5014779;28;20168;-79
2022/07/28 08:35:11;;;;;;;3.92;1.08;;;20.60;99.90;;;;;;5032379;28;20206;-80
2022/07/28 08:37:38;;;;;;;10.57;1.42;;;20.40;99.90;;;;;;5048676;28;20748;-90
2022/07/28 08:40:10;;;;;;;2.42;1.10;;;20.40;99.90;;;;;;5050561;28;20517;-85
2022/07/28 08:42:53;;;;;;;7.60;1.30;;;20.70;99.90;;;;;;5035022;28;20167;-84
2022/07/28 08:45:20;;;;;;;5.10;0.88;;;21.20;99.90;;;;;;5052667;28;20172;-80
2022/07/28 08:47:48;;;;;;;2.55;0.93;;;21.40;99.90;;;;;;5052552;28;20222;-83
2022/07/28 08:50:14;;;;;;;3.08;0.80;;;21.40;99.90;;;;;;5053460;28;20183;-88
2022/07/28 08:52:44;;;;;;;7.38;1.08;;;21.40;99.90;;;;;;5036078;28;20193;-88
2022/07/28 08:55:10;;;;;;;5.15;1.35;;;21.30;99.90;;;;;;5035943;28;20650;-87
2022/07/28 08:57:40;;;;;;;3.30;0.90;;;21.40;99.90;;;;;;5036081;28;20187;-84
2022/07/28 09:00:09;;;;;;;18.05;1.63;;;21.40;99.90;;;;;;5035956;28;20205;-87
2022/07/28 09:02:42;;;;;;;10.57;1.30;;;21.50;99.90;;;;;;5036235;28;20163;-88
2022/07/28 09:05:08;;;;;;;5.05;0.90;;;21.40;99.90;;;;;;5036491;28;20229;-91
2022/07/28 09:07:40;;;;;;;12.63;2.05;;;21.60;99.90;;;;;;5037269;28;20211;-90
2022/07/28 09:10:07;;;;;;;10.35;1.48;;;21.80;99.90;;;;;;5037563;28;20746;-91
2022/07/28 09:12:36;;;;;;;7.18;0.98;;;22.00;99.90;;;;;;5039702;28;20187;-90
2022/07/28 09:15:06;;;;;;;2.75;1.02;;;22.00;99.90;;;;;;5039870;28;20175;-89
2022/07/28 09:17:33;;;;;;;16.70;1.25;;;21.70;99.90;;;;;;5039770;28;20659;-90
2022/07/28 09:19:59;;;;;;;4.10;1.08;;;21.50;99.90;;;;;;5028102;28;20538;-90
2022/07/28 09:22:33;;;;;;;14.60;1.30;;;21.30;99.90;;;;;;5020218;28;20195;-91
2022/07/28 09:25:02;;;;;;;9.38;1.52;;;21.30;99.90;;;;;;5020108;28;20222;-90
2022/07/28 09:27:41;;;;;;;4.47;1.08;;;21.40;99.90;;;;;;5020229;28;20527;-90
2022/07/28 09:30:07;;;;;;;10.23;0.95;;;21.70;99.90;;;;;;5019496;28;20207;-90
2022/07/28 09:32:33;;;;;;;5.47;1.30;;;21.60;99.90;;;;;;5020086;28;20171;-90
2022/07/28 09:34:59;;;;;;;7.57;2.20;;;21.70;99.90;;;;;;5019618;28;20164;-89
2022/07/28 09:37:26;;;;;;;21.05;1.83;;;21.90;99.90;;;;;;5018931;28;20246;-84
2022/07/28 09:39:59;;;;;;;2.55;1.00;;;22.10;99.90;;;;;;5027812;28;20207;-88
2022/07/28 09:42:43;;;;;;;2.17;0.90;;;22.30;99.90;;;;;;5039213;28;20262;-89
2022/07/28 09:45:09;;;;;;;4.45;1.30;;;22.30;99.90;;;;;;5039475;28;20175;-89
2022/07/28 09:47:34;;;;;;;2.35;1.20;;;22.20;99.90;;;;;;5039418;28;20297;-91
2022/07/28 09:50:01;;;;;;;8.40;0.90;;;22.00;99.90;;;;;;5039272;28;20208;-89
2022/07/28 09:52:31;;;;;;;2.15;0.73;;;22.10;99.90;;;;;;5039972;28;20183;-83
2022/07/28 09:55:11;;;;;;;1.60;0.80;;;22.30;99.90;;;;;;5038366;28;20175;-86
2022/07/28 09:57:38;;;;;;;4.72;1.00;;;22.60;99.90;;;;;;5038824;28;20204;-89
2022/07/28 10:00:08;;;;;;;15.30;1.20;;;22.90;99.90;;;;;;5027328;28;20182;-89
2022/07/28 10:02:35;;;;;;;12.60;1.40;;;23.10;99.90;;;;;;5018807;28;20167;-87
2022/07/28 10:05:01;;;;;;;2.08;0.90;;;23.10;99.90;;;;;;5018397;28;20172;-82
2022/07/28 10:07:28;;;;;;;4.53;1.50;;;23.30;99.90;;;;;;5017724;28;20199;-85
2022/07/28 10:10:06;;;;;;;1.75;0.80;;;23.30;99.90;;;;;;5017441;28;20215;-82
2022/07/28 10:12:34;;;;;;;4.30;0.90;;;23.30;99.90;;;;;;5017767;28;20221;-82
2022/07/28 10:17:58;;;;;;;3.40;1.00;;;23.20;99.90;;;;;;5035628;28;20588;-84
2022/07/28 10:20:25;;;;;;;7.70;1.00;;;23.10;99.90;;;;;;5034115;28;20168;-83
2022/07/28 10:22:53;;;;;;;10.52;0.98;;;23.10;99.90;;;;;;5016828;28;20251;-83
2022/07/28 10:25:21;;;;;;;4.97;0.98;;;23.00;99.90;;;;;;5017723;28;20164;-85
2022/07/28 10:27:48;;;;;;;8.68;0.90;;;22.60;99.90;;;;;;5017608;28;20342;-85
2022/07/28 10:30:15;;;;;;;7.28;1.00;;;22.50;99.90;;;;;;5018794;28;20309;-85
2022/07/28 10:32:45;;;;;;;0.90;0.70;;;22.50;99.90;;;;;;5017861;28;20644;-85
2022/07/28 10:35:15;;;;;;;4.82;1.00;;;22.70;99.90;;;;;;5017845;28;20279;-86
2022/07/28 10:38:03;;;;;;;7.80;0.82;;;22.90;99.90;;;;;;5017370;28;20741;-86
2022/07/28 10:40:33;;;;;;;3.55;0.88;;;23.00;99.90;;;;;;5016992;28;20211;-85
2022/07/28 10:42:59;;;;;;;9.88;1.20;;;23.00;99.90;;;;;;5036417;28;20168;-84
2022/07/28 10:45:26;;;;;;;2.38;0.80;;;23.20;99.90;;;;;;5017421;28;20179;-84
2022/07/28 10:47:53;;;;;;;4.93;1.30;;;23.30;99.90;;;;;;5038741;28;20168;-86
2022/07/28 10:50:19;;;;;;;5.32;1.30;;;23.30;99.90;;;;;;5016771;28;20203;-85
2022/07/28 10:52:46;;;;;;;7.07;0.80;;;23.40;99.90;;;;;;5016683;28;20263;-83
2022/07/28 10:55:53;;;;;;;3.78;1.00;;;23.70;99.90;;;;;;5035803;28;20640;-87
2022/07/28 10:58:22;;;;;;;2.17;0.88;;;23.50;99.90;;;;;;5058318;28;20168;-81
2022/07/28 11:00:52;;;;;;;3.15;0.80;;;23.40;99.90;;;;;;5057732;28;20152;-86
2022/07/28 11:03:45;;;;;;;10.88;1.23;;;23.40;99.90;;;;;;5056762;28;20191;-87
2022/07/28 11:06:35;;;;;;;6.63;0.90;;;23.50;99.90;;;;;;5022892;28;20192;-96
2022/07/28 11:09:16;;;;;;;2.55;0.80;;;23.90;99.90;;;;;;5038803;28;20262;-90
2022/07/28 11:11:42;;;;;;;4.13;0.90;;;23.80;99.90;;;;;;5038377;28;20214;-82
2022/07/28 11:14:24;;;;;;;3.40;1.35;;;23.90;99.90;;;;;;5023715;28;20172;-95
2022/07/28 11:17:11;;;;;;;12.50;1.70;;;24.00;99.90;;;;;;5019164;28;20203;-86
2022/07/28 11:19:44;;;;;;;3.50;1.00;;;24.20;99.90;;;;;;5021922;28;20180;-90
2022/07/28 11:24:57;;;;;;;5.40;1.15;;;24.10;99.90;;;;;;5041429;28;20168;-94
2022/07/28 11:27:50;;;;;;;4.70;0.98;;;23.80;99.90;;;;;;5044839;28;20737;-83
2022/07/28 11:30:24;;;;;;;2.28;0.88;;;23.90;99.90;;;;;;5019851;28;20208;-81
2022/07/28 11:32:50;;;;;;;4.28;1.00;;;23.80;99.90;;;;;;5021583;28;20182;-83
2022/07/28 11:35:29;;;;;;;8.48;1.27;;;23.70;99.90;;;;;;5021490;28;20168;-82
2022/07/28 11:38:07;;;;;;;2.30;1.13;;;23.70;99.90;;;;;;5038859;28;20628;-83
2022/07/28 11:41:28;;;;;;;1.75;0.88;;;24.00;99.90;;;;;;5020691;28;20175;-86
2022/07/28 11:43:54;;;;;;;5.20;0.90;;;24.30;99.90;;;;;;5021440;28;20202;-83
2022/07/28 11:46:29;;;;;;;3.38;1.00;;;24.20;99.90;;;;;;5008745;28;20184;-83
2022/07/28 11:49:24;;;;;;;3.28;0.73;;;24.50;99.90;;;;;;5032659;28;20160;-83
2022/07/28 11:52:17;;;;;;;6.32;1.20;;;24.50;99.90;;;;;;5032933;28;20234;-83
2022/07/28 11:54:50;;;;;;;5.82;0.90;;;24.60;99.90;;;;;;5005943;28;20237;-81
2022/07/28 11:57:23;;;;;;;1.70;0.90;;;24.60;99.70;;;;;;5041397;28;20278;-81
2022/07/28 12:00:07;;;;;;;2.55;0.93;;;24.50;99.40;;;;;;5044964;28;20178;-84
2022/07/28 12:02:48;;;;;;;5.45;1.13;;;24.30;99.70;;;;;;5048286;28;20160;-89
2022/07/28 12:05:16;;;;;;;15.55;1.10;;;24.50;99.90;;;;;;5028775;28;20171;-88
2022/07/28 12:07:48;;;;;;;5.15;1.10;;;24.70;99.70;;;;;;5042035;28;20188;-85
2022/07/28 12:10:33;;;;;;;8.32;1.35;;;24.60;99.00;;;;;;5024440;28;20667;-88
2022/07/28 12:13:06;;;;;;;6.03;1.73;;;24.40;99.60;;;;;;5037613;28;20206;-88
2022/07/28 12:15:33;;;;;;;3.50;1.20;;;24.60;99.70;;;;;;5020983;28;20164;-88
2022/07/28 12:18:00;;;;;;;6.13;0.93;;;24.60;99.50;;;;;;5016622;28;20172;-88
2022/07/28 12:20:33;;;;;;;2.17;1.00;;;24.60;99.60;;;;;;5016710;28;20164;-87
2022/07/28 12:23:06;;;;;;;2.38;0.90;;;24.80;99.20;;;;;;5018267;28;20176;-93
2022/07/28 12:25:45;;;;;;;10.10;1.17;;;24.70;98.90;;;;;;5019773;28;20205;-91
2022/07/28 12:28:19;;;;;;;5.60;1.20;;;24.70;99.20;;;;;;5035735;28;20650;-90
2022/07/28 12:30:45;;;;;;;3.47;1.10;;;24.40;99.30;;;;;;5022734;28;20230;-86
2022/07/28 12:33:23;;;;;;;9.10;1.05;;;24.30;99.50;;;;;;5032852;28;20167;-87
2022/07/28 12:35:57;;;;;;;6.10;1.55;;;24.60;99.10;;;;;;5032227;28;20207;-84
2022/07/28 12:38:44;;;;;;;8.35;0.90;;;24.50;99.10;;;;;;5028208;28;20175;-84
2022/07/28 12:41:14;;;;;;;2.10;0.80;;;24.40;99.40;;;;;;5029054;28;20168;-86
2022/07/28 12:44:03;;;;;;;3.47;0.90;;;24.70;98.50;;;;;;5036648;28;20163;-83
2022/07/28 12:46:47;;;;;;;3.03;0.98;;;25.00;99.00;;;;;;5035568;28;20195;-91
2022/07/28 12:49:21;;;;;;;1.45;0.65;;;25.00;98.90;;;;;;5037004;28;20160;-85
2022/07/28 12:51:47;;;;;;;4.97;1.33;;;25.40;98.50;;;;;;5021042;28;20227;-88
2022/07/28 12:54:32;;;;;;;4.65;1.58;;;25.40;98.20;;;;;;5053456;28;20176;-83
2022/07/28 12:56:58;;;;;;;3.60;1.13;;;25.50;98.40;;;;;;5056137;28;20557;-83
2022/07/28 12:59:38;;;;;;;2.35;0.93;;;25.30;98.00;;;;;;5043281;28;20179;-85
2022/07/28 13:02:07;;;;;;;6.28;0.93;;;25.10;98.40;;;;;;5041999;28;20191;-86
2022/07/28 13:04:46;;;;;;;8.27;1.00;;;25.00;98.00;;;;;;5060189;28;20168;-85
2022/07/28 13:07:20;;;;;;;9.10;1.13;;;25.20;98.10;;;;;;5059955;28;20211;-84